createdAt,value
2023-02-23T00:01:22.953Z,100122.47
2023-02-23T00:04:26.411Z,100128.69
2023-02-23T00:07:33.395Z,100121.78
2023-02-23T00:10:36.687Z,100121.84
2023-02-23T00:13:42.121Z,100118.53
2023-02-23T00:16:46.434Z,100127.34
2023-02-23T00:19:49.555Z,100122.06
2023-02-23T00:22:57.264Z,100124.94
2023-02-23T00:26:01.228Z,100121.84
2023-02-23T00:29:19.045Z,100123.03
2023-02-23T00:32:24.023Z,100120.50
2023-02-23T00:35:27.357Z,100126.88
2023-02-23T00:38:35.952Z,100128.94
2023-02-23T00:41:38.826Z,100120.66
2023-02-23T00:44:42.674Z,100125.69
2023-02-23T00:47:48.825Z,100125.34
2023-02-23T00:51:03.383Z,100114.41
2023-02-23T00:54:08.259Z,100128.78
2023-02-23T00:57:10.831Z,100126.72
2023-02-23T01:00:20.317Z,100134.59
2023-02-23T01:03:23.808Z,100128.25
2023-02-23T01:06:26.798Z,100125.63
2023-02-23T01:09:29.683Z,100131.50
2023-02-23T01:12:33.535Z,100129.34
2023-02-23T01:15:43.152Z,100129.72
2023-02-23T01:18:46.954Z,100137.59
2023-02-23T01:21:50.093Z,100133.66
2023-02-23T01:24:56.374Z,100130.66
2023-02-23T01:27:58.975Z,100131.84
2023-02-23T01:31:03.246Z,100132.75
2023-02-23T01:34:06.863Z,100130.88
2023-02-23T01:37:11.003Z,100130.03
2023-02-23T01:40:31.261Z,100122.94
2023-02-23T01:43:37.315Z,100126.59
2023-02-23T01:46:46.564Z,100126.09
2023-02-23T01:49:51.887Z,100127.84
2023-02-23T01:52:56.906Z,100121.50
2023-02-23T01:56:14.893Z,100120.38
2023-02-23T01:59:20.775Z,100124.28
2023-02-23T02:02:33.885Z,100114.41
2023-02-23T02:05:39.545Z,100117.22
2023-02-23T02:08:50.808Z,100115.44
2023-02-23T02:11:55.242Z,100113.38
2023-02-23T02:15:00.736Z,100113.84
2023-02-23T02:18:09.374Z,100115.25
2023-02-23T02:21:28.542Z,100115.44
2023-02-23T02:25:03.064Z,100117.78
2023-02-23T02:28:39.817Z,100117.44
2023-02-23T02:32:21.979Z,100113.28
2023-02-23T02:35:33.895Z,100114.44
2023-02-23T02:39:10.925Z,100118.75
2023-02-23T02:42:43.924Z,100111.78
2023-02-23T02:46:19.967Z,100119.28
2023-02-23T02:49:28.843Z,100118.53
2023-02-23T02:52:40.968Z,100120.53
2023-02-23T02:55:48.360Z,100114.06
2023-02-23T02:58:53.670Z,100119.56
2023-02-23T03:02:23.548Z,100127.63
2023-02-23T03:06:10.544Z,100132.41
2023-02-23T03:10:11.719Z,100123.06
2023-02-23T03:14:14.651Z,100126.81
2023-02-23T03:17:39.135Z,100137.31
2023-02-23T03:21:06.519Z,100129.50
2023-02-23T03:24:30.946Z,100133.00
2023-02-23T03:27:55.291Z,100137.78
2023-02-23T03:31:54.766Z,100137.12
2023-02-23T03:35:33.090Z,100142.63
2023-02-23T03:39:02.847Z,100137.38
2023-02-23T03:42:31.977Z,100143.59
2023-02-23T03:45:55.481Z,100134.78
2023-02-23T03:49:20.942Z,100144.34
2023-02-23T03:53:00.556Z,100142.72
2023-02-23T03:56:23.147Z,100135.91
2023-02-23T03:59:52.957Z,100143.44
2023-02-23T04:03:18.851Z,100147.78
2023-02-23T04:06:44.712Z,100150.19
2023-02-23T04:10:07.132Z,100146.19
2023-02-23T04:13:21.236Z,100140.06
2023-02-23T04:16:25.475Z,100144.12
2023-02-23T04:19:29.212Z,100142.59
2023-02-23T04:22:35.532Z,100147.69
2023-02-23T04:25:41.046Z,100142.53
2023-02-23T04:28:43.860Z,100145.31
2023-02-23T04:31:47.375Z,100149.28
2023-02-23T04:34:50.147Z,100143.34
2023-02-23T04:37:53.170Z,100145.53
2023-02-23T04:40:56.511Z,100147.03
2023-02-23T04:44:00.008Z,100142.91
2023-02-23T04:47:02.655Z,100145.69
2023-02-23T04:50:06.390Z,100141.94
2023-02-23T04:53:10.049Z,100146.34
2023-02-23T04:56:13.119Z,100150.66
2023-02-23T04:59:18.439Z,100152.28
2023-02-23T05:02:23.028Z,100150.28
2023-02-23T05:05:26.265Z,100151.12
2023-02-23T05:08:31.274Z,100156.00
2023-02-23T05:11:34.199Z,100151.28
2023-02-23T05:14:37.291Z,100157.66
2023-02-23T05:17:43.756Z,100154.06
2023-02-23T05:20:48.029Z,100156.94
2023-02-23T05:23:51.304Z,100160.28
2023-02-23T05:26:57.883Z,100160.44
2023-02-23T05:30:01.447Z,100160.28
2023-02-23T05:33:06.229Z,100159.78
2023-02-23T05:36:11.017Z,100169.00
2023-02-23T05:39:15.207Z,100167.34
2023-02-23T05:42:19.490Z,100162.06
2023-02-23T05:45:24.609Z,100173.34
2023-02-23T05:48:29.093Z,100157.31
2023-02-23T05:51:34.255Z,100166.25
2023-02-23T05:54:37.413Z,100164.91
2023-02-23T05:57:45.930Z,100167.62
2023-02-23T06:00:52.561Z,100171.84
2023-02-23T06:03:58.120Z,100175.56
2023-02-23T06:07:02.371Z,100187.84
2023-02-23T06:10:07.213Z,100184.06
2023-02-23T06:13:13.502Z,100180.00
2023-02-23T06:16:16.764Z,100189.28
2023-02-23T06:19:21.661Z,100189.75
2023-02-23T06:22:24.948Z,100190.06
2023-02-23T06:25:31.108Z,100198.06
2023-02-23T06:28:37.690Z,100211.19
2023-02-23T06:31:40.585Z,100209.94
2023-02-23T06:34:44.964Z,100216.19
2023-02-23T06:37:55.879Z,100204.97
2023-02-23T06:41:00.922Z,100213.78
2023-02-23T06:44:04.120Z,100218.56
2023-02-23T06:47:07.748Z,100221.19
2023-02-23T06:50:11.334Z,100219.91
2023-02-23T06:53:14.716Z,100223.94
2023-02-23T06:56:18.179Z,100225.34
2023-02-23T06:59:21.657Z,100228.66
2023-02-23T07:02:25.477Z,100233.16
2023-02-23T07:05:31.798Z,100228.94
2023-02-23T07:08:35.185Z,100234.69
2023-02-23T07:11:41.198Z,100234.06
2023-02-23T07:14:45.473Z,100230.69
2023-02-23T07:17:51.636Z,100238.06
2023-02-23T07:20:58.232Z,100244.06
2023-02-23T07:24:04.929Z,100244.75
2023-02-23T07:27:08.041Z,100242.94
2023-02-23T07:30:12.392Z,100240.53
2023-02-23T07:33:16.535Z,100239.41
2023-02-23T07:36:19.575Z,100247.50
2023-02-23T07:39:22.606Z,100248.78
2023-02-23T07:42:26.974Z,100248.25
2023-02-23T07:45:29.693Z,100246.00
2023-02-23T07:48:36.381Z,100239.91
2023-02-23T07:51:39.848Z,100248.03
2023-02-23T07:54:43.982Z,100245.91
2023-02-23T07:57:47.262Z,100245.06
2023-02-23T08:00:51.755Z,100248.03
2023-02-23T08:03:54.761Z,100243.66
2023-02-23T08:07:00.048Z,100254.34
2023-02-23T08:10:03.761Z,100243.94
2023-02-23T08:13:06.777Z,100249.28
2023-02-23T08:16:10.051Z,100259.78
2023-02-23T08:19:12.716Z,100258.56
2023-02-23T08:22:15.883Z,100260.91
2023-02-23T08:25:19.226Z,100262.78
2023-02-23T08:28:24.784Z,100259.97
2023-02-23T08:31:27.820Z,100253.50
2023-02-23T08:34:31.934Z,100265.69
2023-02-23T08:37:38.646Z,100259.12
2023-02-23T08:40:43.637Z,100267.19
2023-02-23T08:43:54.019Z,100260.63
2023-02-23T08:46:58.706Z,100271.22
2023-02-23T08:50:01.772Z,100263.69
2023-02-23T08:53:07.322Z,100273.75
2023-02-23T08:56:11.208Z,100268.88
2023-02-23T08:59:15.532Z,100276.56
2023-02-23T09:02:18.288Z,100281.06
2023-02-23T09:05:21.544Z,100274.41
2023-02-23T09:08:26.150Z,100278.81
2023-02-23T09:11:30.405Z,100275.47
2023-02-23T09:14:33.810Z,100270.41
2023-02-23T09:17:38.039Z,100281.66
2023-02-23T09:20:45.716Z,100274.44
2023-02-23T09:23:56.133Z,100278.19
2023-02-23T09:26:58.936Z,100278.88
2023-02-23T09:30:05.880Z,100275.19
2023-02-23T09:33:09.691Z,100275.47
2023-02-23T09:36:19.464Z,100279.03
2023-02-23T09:39:37.226Z,100285.84
2023-02-23T09:42:57.228Z,100281.47
2023-02-23T09:46:06.136Z,100286.69
2023-02-23T09:49:22.286Z,100284.22
2023-02-23T09:52:33.797Z,100287.75
2023-02-23T09:55:41.652Z,100289.44
2023-02-23T09:58:45.171Z,100289.09
2023-02-23T10:01:48.307Z,100287.19
2023-02-23T10:05:02.101Z,100291.72
2023-02-23T10:08:31.039Z,100284.25
2023-02-23T10:12:02.419Z,100292.47
2023-02-23T10:15:23.987Z,100291.97
2023-02-23T10:18:46.613Z,100292.47
2023-02-23T10:22:03.731Z,100284.69
2023-02-23T10:25:17.958Z,100286.97
2023-02-23T10:28:22.563Z,100284.66
2023-02-23T10:31:46.595Z,100285.69
2023-02-23T10:34:54.033Z,100280.41
2023-02-23T10:37:58.533Z,100282.59
2023-02-23T10:41:01.707Z,100274.75
2023-02-23T10:44:16.409Z,100283.03
2023-02-23T10:47:25.338Z,100267.69
2023-02-23T10:50:31.631Z,100267.22
2023-02-23T10:53:36.767Z,100264.97
2023-02-23T10:56:46.414Z,100254.13
2023-02-23T11:00:06.410Z,100258.50
2023-02-23T11:03:22.691Z,100246.87
2023-02-23T11:06:40.539Z,100250.19
2023-02-23T11:09:47.831Z,100235.75
2023-02-23T11:12:51.627Z,100233.69
2023-02-23T11:16:25.443Z,100238.81
2023-02-23T11:19:37.219Z,100228.59
2023-02-23T11:22:42.455Z,100235.62
2023-02-23T11:25:47.051Z,100227.84
2023-02-23T11:28:56.590Z,100225.78
2023-02-23T11:32:00.328Z,100223.94
2023-02-23T11:35:21.690Z,100222.03
2023-02-23T11:38:27.531Z,100220.09
2023-02-23T11:41:35.318Z,100215.94
2023-02-23T11:44:38.332Z,100213.06
2023-02-23T11:47:48.198Z,100208.56
2023-02-23T11:50:53.335Z,100214.06
2023-02-23T11:53:58.000Z,100215.12
2023-02-23T11:57:02.768Z,100214.22
2023-02-23T12:00:12.313Z,100206.25
2023-02-23T12:03:23.245Z,100206.59
2023-02-23T12:06:38.346Z,100200.88
2023-02-23T12:09:46.404Z,100210.19
2023-02-23T12:12:53.235Z,100199.78
2023-02-23T12:16:08.818Z,100197.44
2023-02-23T12:19:19.548Z,100184.50
2023-02-23T12:22:42.299Z,100187.31
2023-02-23T12:25:57.930Z,100190.78
2023-02-23T12:29:10.517Z,100191.50
2023-02-23T12:32:19.796Z,100183.94
2023-02-23T12:35:31.289Z,100179.75
2023-02-23T12:38:54.596Z,100181.16
2023-02-23T12:42:16.226Z,100167.50
2023-02-23T12:45:31.628Z,100173.06
2023-02-23T12:48:43.144Z,100170.78
2023-02-23T12:51:58.292Z,100165.63
2023-02-23T12:55:01.007Z,100162.56
2023-02-23T12:58:23.192Z,100161.22
2023-02-23T13:01:38.916Z,100153.81
2023-02-23T13:04:45.074Z,100148.75
2023-02-23T13:08:12.941Z,100149.94
2023-02-23T13:11:43.078Z,100141.19
2023-02-23T13:14:45.795Z,100148.06
2023-02-23T13:18:29.623Z,100133.28
2023-02-23T13:21:44.737Z,100138.50
2023-02-23T13:24:51.440Z,100130.28
2023-02-23T13:28:03.001Z,100122.94
2023-02-23T13:31:25.700Z,100128.56
2023-02-23T13:34:33.342Z,100131.28
2023-02-23T13:38:20.106Z,100124.16
2023-02-23T13:41:38.312Z,100117.19
2023-02-23T13:45:03.612Z,100119.66
2023-02-23T13:48:39.799Z,100117.78
2023-02-23T13:52:21.363Z,100109.28
2023-02-23T13:55:48.174Z,100115.28
2023-02-23T13:59:01.039Z,100111.63
2023-02-23T14:02:33.096Z,100099.28
2023-02-23T14:05:45.167Z,100106.44
2023-02-23T14:09:11.990Z,100097.34
2023-02-23T14:12:23.358Z,100104.56
2023-02-23T14:15:27.388Z,100104.53
2023-02-23T14:18:33.705Z,100099.53
2023-02-23T14:21:57.432Z,100102.00
2023-02-23T14:25:34.659Z,100103.19
2023-02-23T14:28:42.720Z,100104.81
2023-02-23T14:32:11.658Z,100097.41
2023-02-23T14:35:35.174Z,100098.59
2023-02-23T14:38:47.905Z,100104.22
2023-02-23T14:41:53.998Z,100102.66
2023-02-23T14:45:02.907Z,100095.09
2023-02-23T14:48:11.741Z,100096.31
2023-02-23T14:51:24.801Z,100092.69
2023-02-23T14:54:33.318Z,100092.47
2023-02-23T14:57:41.057Z,100085.13
2023-02-23T15:00:44.466Z,100095.19
2023-02-23T15:04:12.776Z,100092.47
2023-02-23T15:07:24.088Z,100085.00
2023-02-23T15:10:41.078Z,100088.50
2023-02-23T15:13:50.343Z,100085.03
2023-02-23T15:16:56.083Z,100082.88
2023-02-23T15:20:15.974Z,100083.72
2023-02-23T15:23:21.599Z,100080.69
2023-02-23T15:26:35.459Z,100079.03
2023-02-23T15:29:38.512Z,100073.25
2023-02-23T15:32:42.555Z,100079.03
2023-02-23T15:35:57.014Z,100076.62
2023-02-23T15:39:03.817Z,100079.62
2023-02-23T15:42:11.098Z,100072.53
2023-02-23T15:45:28.555Z,100072.28
2023-02-23T15:48:51.284Z,100064.72
2023-02-23T15:52:09.532Z,100070.38
2023-02-23T15:55:24.197Z,100070.34
2023-02-23T15:59:01.752Z,100068.91
2023-02-23T16:02:18.028Z,100066.09
2023-02-23T16:05:24.002Z,100063.91
2023-02-23T16:08:29.715Z,100062.47
2023-02-23T16:11:36.107Z,100064.63
2023-02-23T16:15:04.385Z,100057.31
2023-02-23T16:18:16.051Z,100067.00
2023-02-23T16:21:24.410Z,100062.59
2023-02-23T16:24:29.201Z,100070.16
2023-02-23T16:27:33.283Z,100067.13
2023-02-23T16:30:51.171Z,100071.44
2023-02-23T16:34:00.118Z,100074.84
2023-02-23T16:37:15.769Z,100073.97
2023-02-23T16:40:19.839Z,100084.19
2023-02-23T16:43:23.093Z,100076.09
2023-02-23T16:46:30.451Z,100075.06
2023-02-23T16:49:33.643Z,100076.16
2023-02-23T16:52:36.549Z,100077.34
2023-02-23T16:55:54.689Z,100073.50
2023-02-23T16:59:02.810Z,100073.03
2023-02-23T17:02:09.915Z,100074.69
2023-02-23T17:05:14.825Z,100075.97
2023-02-23T17:08:21.521Z,100082.94
2023-02-23T17:11:24.272Z,100080.53
2023-02-23T17:14:28.331Z,100080.53
2023-02-23T17:17:31.528Z,100073.97
2023-02-23T17:20:34.763Z,100071.31
2023-02-23T17:23:48.400Z,100065.91
2023-02-23T17:26:53.169Z,100067.53
2023-02-23T17:29:56.210Z,100067.19
2023-02-23T17:33:02.205Z,100055.94
2023-02-23T17:36:08.378Z,100056.66
2023-02-23T17:39:14.198Z,100061.94
2023-02-23T17:42:18.253Z,100057.37
2023-02-23T17:45:22.780Z,100059.44
2023-02-23T17:48:27.814Z,100071.03
2023-02-23T17:51:31.164Z,100066.06
2023-02-23T17:54:34.168Z,100074.13
2023-02-23T17:57:37.466Z,100071.81
2023-02-23T18:00:40.976Z,100061.91
2023-02-23T18:03:45.561Z,100071.56
2023-02-23T18:06:48.807Z,100069.75
2023-02-23T18:09:52.516Z,100068.66
2023-02-23T18:12:55.577Z,100072.88
2023-02-23T18:16:09.227Z,100057.87
2023-02-23T18:19:13.229Z,100067.81
2023-02-23T18:22:20.042Z,100064.88
2023-02-23T18:25:28.147Z,100061.13
2023-02-23T18:28:31.348Z,100054.78
2023-02-23T18:31:35.230Z,100062.25
2023-02-23T18:34:39.108Z,100065.50
2023-02-23T18:37:42.985Z,100061.50
2023-02-23T18:40:46.839Z,100060.28
2023-02-23T18:43:50.860Z,100059.22
2023-02-23T18:46:57.251Z,100050.06
2023-02-23T18:50:03.048Z,100058.53
2023-02-23T18:53:10.974Z,100053.41
2023-02-23T18:56:16.805Z,100048.66
2023-02-23T18:59:22.327Z,100045.44
2023-02-23T19:02:27.281Z,100045.88
2023-02-23T19:05:30.723Z,100042.28
2023-02-23T19:08:34.012Z,100041.00
2023-02-23T19:11:38.597Z,100036.53
2023-02-23T19:14:49.611Z,100036.28
2023-02-23T19:17:54.624Z,100035.00
2023-02-23T19:20:57.484Z,100031.06
2023-02-23T19:24:02.776Z,100044.47
2023-02-23T19:27:06.316Z,100041.56
2023-02-23T19:30:14.846Z,100036.63
2023-02-23T19:33:21.569Z,100040.75
2023-02-23T19:36:30.737Z,100034.44
2023-02-23T19:39:33.709Z,100033.81
2023-02-23T19:42:43.049Z,100038.69
2023-02-23T19:45:48.987Z,100036.06
2023-02-23T19:48:54.938Z,100042.56
2023-02-23T19:51:58.272Z,100035.84
2023-02-23T19:55:03.772Z,100046.19
2023-02-23T19:58:13.366Z,100038.06
2023-02-23T20:01:19.475Z,100045.62
2023-02-23T20:04:23.441Z,100054.16
2023-02-23T20:07:26.642Z,100044.31
2023-02-23T20:10:35.127Z,100055.88
2023-02-23T20:13:39.169Z,100044.31
2023-02-23T20:16:42.590Z,100044.81
2023-02-23T20:19:46.356Z,100040.50
2023-02-23T20:22:52.533Z,100040.94
2023-02-23T20:25:56.320Z,100036.91
2023-02-23T20:28:59.271Z,100033.47
2023-02-23T20:32:04.545Z,100025.47
2023-02-23T20:35:08.012Z,100031.25
2023-02-23T20:38:11.697Z,100026.22
2023-02-23T20:41:15.289Z,100019.78
2023-02-23T20:44:18.315Z,100015.25
2023-02-23T20:47:24.741Z,100018.56
2023-02-23T20:50:34.009Z,100013.63
2023-02-23T20:53:37.444Z,100010.16
2023-02-23T20:56:43.478Z,100011.13
2023-02-23T20:59:49.833Z,100008.34
2023-02-23T21:02:56.449Z,100010.00
2023-02-23T21:05:59.924Z,100006.22
2023-02-23T21:09:17.075Z,100007.19
2023-02-23T21:12:21.649Z,100002.44
2023-02-23T21:15:29.094Z,100003.59
2023-02-23T21:18:32.574Z,99998.91
2023-02-23T21:21:47.803Z,100000.81
2023-02-23T21:24:51.362Z,99999.31
2023-02-23T21:27:56.340Z,99998.28
2023-02-23T21:31:01.973Z,99991.16
2023-02-23T21:34:06.656Z,99994.78
2023-02-23T21:37:09.832Z,99995.81
2023-02-23T21:40:18.952Z,100005.06
2023-02-23T21:43:23.294Z,99998.97
2023-02-23T21:46:26.477Z,100000.97
2023-02-23T21:49:32.145Z,100001.47
2023-02-23T21:52:35.316Z,99999.06
2023-02-23T21:55:40.080Z,99994.97
2023-02-23T21:58:52.343Z,99986.91
2023-02-23T22:01:55.462Z,99990.34
2023-02-23T22:04:58.586Z,99984.34
2023-02-23T22:08:01.145Z,99983.19
2023-02-23T22:11:09.148Z,99980.16
2023-02-23T22:14:12.292Z,99977.16
2023-02-23T22:17:18.904Z,99972.72
2023-02-23T22:20:22.401Z,99967.62
2023-02-23T22:23:27.946Z,99961.00
2023-02-23T22:26:30.608Z,99963.72
2023-02-23T22:29:33.600Z,99961.31
2023-02-23T22:32:36.891Z,99959.16
2023-02-23T22:35:41.215Z,99955.53
2023-02-23T22:38:46.706Z,99956.25
2023-02-23T22:41:50.271Z,99951.00
2023-02-23T22:44:53.303Z,99956.69
2023-02-23T22:48:01.478Z,99952.44
2023-02-23T22:51:07.883Z,99940.91
2023-02-23T22:54:11.796Z,99940.19
2023-02-23T22:57:15.094Z,99938.69
2023-02-23T23:00:19.724Z,99934.91
2023-02-23T23:03:22.381Z,99927.16
2023-02-23T23:06:27.017Z,99927.88
2023-02-23T23:09:29.835Z,99923.25
2023-02-23T23:12:34.514Z,99936.25
2023-02-23T23:15:38.996Z,99922.69
2023-02-23T23:18:49.389Z,99926.50
2023-02-23T23:21:56.549Z,99927.19
2023-02-23T23:25:01.947Z,99922.63
2023-02-23T23:28:04.843Z,99925.63
2023-02-23T23:31:10.762Z,99920.16
2023-02-23T23:34:16.654Z,99914.28
2023-02-23T23:37:19.938Z,99913.00
2023-02-23T23:40:24.518Z,99905.34
2023-02-23T23:43:28.703Z,99899.12
2023-02-23T23:46:35.598Z,99899.88
2023-02-23T23:49:40.776Z,99895.16
2023-02-23T23:52:45.638Z,99885.09
2023-02-23T23:55:48.640Z,99884.44
2023-02-23T23:58:54.071Z,99885.69
